Time;durP1;ratioP1;P1;durP2;ratioP2;P2;SDS_P1;SDS_P2;PMS_P1;PMS_P2;Temp;Humidity;BMP_temperature;BMP_pressure;BME280_temperature;BME280_humidity;BME280_pressure;Samples;Min_cycle;Max_cycle;Signal;HPM_P1;HPM_P2
2022/11/07 00:01:40;;;;;;;;;;;;;;;;;;5113307;28;2169;-44
2022/11/07 00:04:07;;;;;;;;;;;;;;;;;;5113427;28;2192;-44
2022/11/07 00:06:36;;;;;;;;;;;;;;;;;;5113462;28;1963;-43
2022/11/07 00:09:03;;;;;;;;;;;;;;;;;;5113496;28;1975;-46
2022/11/07 00:11:30;;;;;;;;;;;;;;;;;;5113441;28;1822;-46
2022/11/07 00:13:57;;;;;;;;;;;;;;;;;;5113578;27;2047;-44
2022/11/07 00:16:25;;;;;;;;;;;;;;;;;;5113363;28;2038;-43
2022/11/07 00:18:52;;;;;;;;;;;;;;;;;;5113132;28;1946;-46
2022/11/07 00:21:19;;;;;;;;;;;;;;;;;;5113222;28;1649;-45
2022/11/07 00:23:46;;;;;;;;;;;;;;;;;;5113287;28;1731;-44
2022/11/07 00:26:14;;;;;;;;;;;;;;;;;;5112994;28;2108;-45
2022/11/07 00:28:42;;;;;;;;;;;;;;;;;;5113123;28;1965;-45
2022/11/07 00:31:11;;;;;;;;;;;;;;;;;;5112524;28;1605;-43
2022/11/07 00:33:38;;;;;;;;;;;;;;;;;;5112812;28;2038;-43
2022/11/07 00:36:05;;;;;;;;;;;;;;;;;;5112812;28;2033;-44
2022/11/07 00:38:32;;;;;;;;;;;;;;;;;;5112942;28;2090;-43
2022/11/07 00:41:01;;;;;;;;;;;;;;;;;;5111964;28;1623;-43
2022/11/07 00:43:28;;;;;;;;;;;;;;;;;;5113098;28;1960;-46
2022/11/07 00:45:55;;;;;;;;;;;;;;;;;;5112496;28;2100;-42
2022/11/07 00:48:22;;;;;;;;;;;;;;;;;;5112720;28;1363;-44
2022/11/07 00:50:49;;;;;;;;;;;;;;;;;;5118318;27;2155;-44
2022/11/07 00:53:16;;;;;;;;;;;;;;;;;;5133183;27;1913;-41
2022/11/07 00:55:44;;;;;;;;;;;;;;;;;;5133039;27;1394;-43
2022/11/07 00:58:11;;;;;;;;;;;;;;;;;;5132673;27;1995;-43
2022/11/07 01:00:40;;;;;;;;;;;;;;;;;;5133185;27;1795;-44
2022/11/07 01:05:56;;;;;;;;;;;;;;;;;;5132677;27;2149;-44
2022/11/07 01:08:24;;;;;;;;;;;;;;;;;;5132954;27;1863;-44
2022/11/07 01:10:51;;;;;;;;;;;;;;;;;;5132546;27;1761;-45
2022/11/07 01:13:18;;;;;;;;;;;;;;;;;;5132344;27;1986;-45
2022/11/07 01:15:45;;;;;;;;;;;;;;;;;;5132538;27;1873;-44
2022/11/07 01:18:13;;;;;;;;;;;;;;;;;;5132725;27;1563;-45
2022/11/07 01:20:40;;;;;;;;;;;;;;;;;;5132811;27;1997;-44
2022/11/07 01:23:07;;;;;;;;;;;;;;;;;;5132534;27;1949;-44
2022/11/07 01:25:35;;;;;;;;;;;;;;;;;;5132559;27;1790;-43
2022/11/07 01:28:03;;;;;;;;;;;;;;;;;;5132328;27;1836;-44
2022/11/07 01:30:30;;;;;;;;;;;;;;;;;;5132875;27;1838;-43
2022/11/07 01:32:57;;;;;;;;;;;;;;;;;;5132476;27;1991;-43
2022/11/07 01:35:24;;;;;;;;;;;;;;;;;;5132330;27;2115;-43
2022/11/07 01:37:51;;;;;;;;;;;;;;;;;;5132344;27;1637;-43
2022/11/07 01:40:18;;;;;;;;;;;;;;;;;;5132224;27;2114;-44
2022/11/07 01:42:45;;;;;;;;;;;;;;;;;;5132408;27;1813;-45
2022/11/07 01:45:13;;;;;;;;;;;;;;;;;;5132439;27;1727;-45
2022/11/07 01:47:41;;;;;;;;;;;;;;;;;;5132076;27;1695;-43
2022/11/07 01:50:07;;;;;;;;;;;;;;;;;;5132015;27;1668;-44
2022/11/07 01:52:40;;;;;;;;;;;;;;;;;;5111500;28;2049;-45
2022/11/07 01:55:44;;;;;;;;;;;;;;;;;;5111509;28;1950;-44
2022/11/07 01:58:11;;;;;;;;;;;;;;;;;;5068368;28;1743;-43
2022/11/07 02:00:38;;;;;;;;;;;;;;;;;;5103500;28;1843;-44
2022/11/07 02:03:07;;;;;;;;;;;;;;;;;;5112015;28;2007;-44
2022/11/07 02:05:36;;;;;;;;;;;;;;;;;;5111928;28;2176;-43
2022/11/07 02:08:04;;;;;;;;;;;;;;;;;;5111551;28;1687;-45
2022/11/07 02:10:33;;;;;;;;;;;;;;;;;;5111734;28;1918;-43
2022/11/07 02:13:01;;;;;;;;;;;;;;;;;;5122548;28;2149;-43
2022/11/07 02:15:28;;;;;;;;;;;;;;;;;;5131489;28;1973;-44
2022/11/07 02:17:56;;;;;;;;;;;;;;;;;;5132110;27;2106;-44
2022/11/07 02:20:23;;;;;;;;;;;;;;;;;;5131822;27;1718;-44
2022/11/07 02:22:55;;;;;;;;;;;;;;;;;;5131880;27;1855;-45
2022/11/07 02:25:22;;;;;;;;;;;;;;;;;;5135062;27;2159;-43
2022/11/07 02:27:51;;;;;;;;;;;;;;;;;;5135622;27;1919;-43
2022/11/07 02:30:23;;;;;;;;;;;;;;;;;;5135867;27;2041;-45
2022/11/07 02:32:51;;;;;;;;;;;;;;;;;;5135687;27;1909;-43
2022/11/07 02:35:31;;;;;;;;;;;;;;;;;;5135827;27;1827;-43
2022/11/07 02:37:58;;;;;;;;;;;;;;;;;;5135903;27;1836;-43
2022/11/07 02:40:26;;;;;;;;;;;;;;;;;;5135602;27;1595;-42
2022/11/07 02:42:54;;;;;;;;;;;;;;;;;;5135822;27;2022;-43
2022/11/07 02:45:24;;;;;;;;;;;;;;;;;;5135786;27;2155;-43
2022/11/07 02:47:51;;;;;;;;;;;;;;;;;;5135757;27;1833;-43
2022/11/07 02:50:18;;;;;;;;;;;;;;;;;;5134015;27;1783;-44
2022/11/07 02:52:45;;;;;;;;;;;;;;;;;;5114880;28;2122;-44
2022/11/07 02:55:12;;;;;;;;;;;;;;;;;;5114649;28;1781;-43
2022/11/07 02:57:39;;;;;;;;;;;;;;;;;;5115094;28;2103;-45
2022/11/07 03:00:07;;;;;;;;;;;;;;;;;;5115149;28;1792;-43
2022/11/07 03:02:34;;;;;;;;;;;;;;;;;;5114819;28;1774;-43
2022/11/07 03:05:01;;;;;;;;;;;;;;;;;;5114649;28;1737;-43
2022/11/07 03:07:28;;;;;;;;;;;;;;;;;;5114105;28;2130;-43
2022/11/07 03:09:55;;;;;;;;;;;;;;;;;;5114388;28;1951;-42
2022/11/07 03:12:23;;;;;;;;;;;;;;;;;;5114548;27;2207;-44
2022/11/07 03:14:50;;;;;;;;;;;;;;;;;;5114330;28;2249;-45
2022/11/07 03:17:17;;;;;;;;;;;;;;;;;;5113238;28;2178;-45
2022/11/07 03:19:44;;;;;;;;;;;;;;;;;;5114442;28;1880;-43
2022/11/07 03:22:11;;;;;;;;;;;;;;;;;;5114654;28;2170;-43
2022/11/07 03:24:38;;;;;;;;;;;;;;;;;;5114389;28;1361;-44
2022/11/07 03:27:05;;;;;;;;;;;;;;;;;;5114441;28;2188;-43
2022/11/07 03:29:32;;;;;;;;;;;;;;;;;;5114248;28;1859;-44
2022/11/07 03:31:59;;;;;;;;;;;;;;;;;;5113952;28;2191;-45
2022/11/07 03:34:26;;;;;;;;;;;;;;;;;;5113594;28;1990;-46
2022/11/07 03:36:53;;;;;;;;;;;;;;;;;;5114062;28;1895;-44
2022/11/07 03:39:22;;;;;;;;;;;;;;;;;;5114136;28;2332;-44
2022/11/07 03:41:51;;;;;;;;;;;;;;;;;;5114030;28;1350;-45
2022/11/07 03:44:19;;;;;;;;;;;;;;;;;;5113762;27;2143;-43
2022/11/07 03:46:46;;;;;;;;;;;;;;;;;;5113706;28;2156;-44
2022/11/07 03:49:13;;;;;;;;;;;;;;;;;;5113607;28;1667;-44
2022/11/07 03:51:40;;;;;;;;;;;;;;;;;;5113921;27;2238;-44
2022/11/07 03:54:07;;;;;;;;;;;;;;;;;;5113786;28;1977;-43
2022/11/07 03:56:34;;;;;;;;;;;;;;;;;;5113879;28;2129;-44
2022/11/07 03:59:02;;;;;;;;;;;;;;;;;;5113848;28;1877;-45
2022/11/07 04:01:29;;;;;;;;;;;;;;;;;;5113728;28;2045;-42
2022/11/07 04:03:56;;;;;;;;;;;;;;;;;;5113392;28;2156;-44
2022/11/07 04:06:24;;;;;;;;;;;;;;;;;;5112206;28;2013;-45
2022/11/07 04:08:52;;;;;;;;;;;;;;;;;;5113392;28;1656;-43
2022/11/07 04:19:36;;;;;;;;;;;;;;;;;;5113381;28;1921;-44
2022/11/07 04:22:04;;;;;;;;;;;;;;;;;;5113100;28;1367;-44
2022/11/07 04:24:31;;;;;;;;;;;;;;;;;;5113018;28;2434;-44
2022/11/07 04:29:43;;;;;;;;;;;;;;;;;;5113240;28;2144;-44
2022/11/07 04:32:11;;;;;;;;;;;;;;;;;;5113232;28;1703;-43
2022/11/07 04:34:38;;;;;;;;;;;;;;;;;;5112834;28;1979;-44
2022/11/07 04:37:05;;;;;;;;;;;;;;;;;;5112835;28;2297;-45
2022/11/07 04:39:32;;;;;;;;;;;;;;;;;;5112771;28;1924;-46
2022/11/07 04:41:59;;;;;;;;;;;;;;;;;;5112562;28;1777;-44
2022/11/07 04:44:26;;;;;;;;;;;;;;;;;;5112949;28;1931;-42
2022/11/07 04:46:53;;;;;;;;;;;;;;;;;;5111868;28;2076;-43
2022/11/07 04:49:20;;;;;;;;;;;;;;;;;;5112510;28;2151;-43
2022/11/07 04:51:48;;;;;;;;;;;;;;;;;;5126668;27;1738;-46
2022/11/07 04:54:16;;;;;;;;;;;;;;;;;;5132975;27;2317;-44
2022/11/07 04:56:43;;;;;;;;;;;;;;;;;;5133463;27;1490;-44
2022/11/07 04:59:10;;;;;;;;;;;;;;;;;;5133023;27;2158;-45
2022/11/07 05:01:37;;;;;;;;;;;;;;;;;;5132947;27;2526;-42
2022/11/07 05:04:04;;;;;;;;;;;;;;;;;;5132501;27;1833;-43
2022/11/07 05:06:35;;;;;;;;;;;;;;;;;;5132452;27;1985;-44
2022/11/07 05:09:02;;;;;;;;;;;;;;;;;;5131588;27;1758;-43
2022/11/07 05:11:30;;;;;;;;;;;;;;;;;;5132709;27;1973;-43
2022/11/07 05:13:57;;;;;;;;;;;;;;;;;;5132669;27;1988;-44
2022/11/07 05:16:24;;;;;;;;;;;;;;;;;;5132809;27;1757;-43
2022/11/07 05:18:51;;;;;;;;;;;;;;;;;;5132560;27;1887;-45
2022/11/07 05:21:18;;;;;;;;;;;;;;;;;;5131716;27;1924;-43
2022/11/07 05:23:45;;;;;;;;;;;;;;;;;;5111119;28;2258;-44
2022/11/07 05:26:12;;;;;;;;;;;;;;;;;;5112083;28;2186;-44
2022/11/07 05:28:39;;;;;;;;;;;;;;;;;;5111967;28;1878;-46
2022/11/07 05:31:07;;;;;;;;;;;;;;;;;;5111908;28;2097;-43
2022/11/07 05:33:35;;;;;;;;;;;;;;;;;;5112065;28;1926;-44
2022/11/07 05:36:09;;;;;;;;;;;;;;;;;;5111959;28;1756;-44
2022/11/07 05:38:36;;;;;;;;;;;;;;;;;;5111748;28;2259;-45
2022/11/07 05:41:03;;;;;;;;;;;;;;;;;;5112364;28;2244;-44
2022/11/07 05:43:30;;;;;;;;;;;;;;;;;;5111787;28;1649;-45
2022/11/07 05:45:58;;;;;;;;;;;;;;;;;;5110423;28;1869;-45
2022/11/07 05:48:25;;;;;;;;;;;;;;;;;;5111293;28;2038;-43
2022/11/07 05:50:52;;;;;;;;;;;;;;;;;;5111777;28;1940;-44
2022/11/07 05:53:20;;;;;;;;;;;;;;;;;;5111685;28;1979;-44
2022/11/07 05:55:49;;;;;;;;;;;;;;;;;;5112066;28;1878;-44
2022/11/07 05:58:16;;;;;;;;;;;;;;;;;;5111846;28;1945;-44
2022/11/07 06:00:44;;;;;;;;;;;;;;;;;;5111752;28;2082;-44
2022/11/07 06:03:12;;;;;;;;;;;;;;;;;;5111718;28;2124;-44
2022/11/07 06:05:40;;;;;;;;;;;;;;;;;;5111381;28;2152;-44
2022/11/07 06:08:10;;;;;;;;;;;;;;;;;;5111385;28;1647;-43
2022/11/07 06:10:38;;;;;;;;;;;;;;;;;;5111569;28;1414;-43
2022/11/07 06:13:06;;;;;;;;;;;;;;;;;;5111410;28;2314;-44
2022/11/07 06:15:34;;;;;;;;;;;;;;;;;;5111394;28;1959;-46
2022/11/07 06:18:03;;;;;;;;;;;;;;;;;;5111545;28;2285;-46
2022/11/07 06:20:30;;;;;;;;;;;;;;;;;;5111562;28;1961;-44
2022/11/07 06:23:01;;;;;;;;;;;;;;;;;;5111450;28;2026;-45
2022/11/07 06:25:29;;;;;;;;;;;;;;;;;;5111227;28;1732;-46
2022/11/07 06:28:04;;;;;;;;;;;;;;;;;;5110976;28;1679;-44
2022/11/07 06:30:34;;;;;;;;;;;;;;;;;;5111132;28;1943;-44
2022/11/07 06:33:02;;;;;;;;;;;;;;;;;;5111244;28;1774;-45
2022/11/07 06:35:30;;;;;;;;;;;;;;;;;;5111038;28;1915;-45
2022/11/07 06:38:02;;;;;;;;;;;;;;;;;;5111143;28;2102;-44
2022/11/07 06:40:29;;;;;;;;;;;;;;;;;;5111267;28;2059;-44
2022/11/07 06:43:04;;;;;;;;;;;;;;;;;;5111321;28;2103;-45
2022/11/07 06:45:32;;;;;;;;;;;;;;;;;;5111189;28;1860;-45
2022/11/07 06:48:00;;;;;;;;;;;;;;;;;;5111059;28;1798;-45
2022/11/07 06:50:27;;;;;;;;;;;;;;;;;;5126597;27;2058;-45
2022/11/07 06:52:54;;;;;;;;;;;;;;;;;;5110813;28;1802;-43
2022/11/07 06:55:21;;;;;;;;;;;;;;;;;;5111174;28;2005;-44
2022/11/07 06:57:48;;;;;;;;;;;;;;;;;;5109641;28;1669;-45
2022/11/07 07:00:15;;;;;;;;;;;;;;;;;;5111205;28;2092;-45
2022/11/07 07:02:42;;;;;;;;;;;;;;;;;;5111073;28;1699;-46
2022/11/07 07:05:23;;;;;;;;;;;;;;;;;;5110972;28;2134;-46
2022/11/07 07:07:51;;;;;;;;;;;;;;;;;;5111254;28;2314;-44
2022/11/07 07:10:18;;;;;;;;;;;;;;;;;;5112413;28;1858;-43
2022/11/07 07:12:45;;;;;;;;;;;;;;;;;;5114487;28;1687;-43
2022/11/07 07:15:12;;;;;;;;;;;;;;;;;;5114252;28;1965;-44
2022/11/07 07:17:39;;;;;;;;;;;;;;;;;;5114306;28;1783;-44
2022/11/07 07:20:06;;;;;;;;;;;;;;;;;;5114494;28;1788;-43
2022/11/07 07:22:33;;;;;;;;;;;;;;;;;;5114500;28;2099;-44
2022/11/07 07:25:00;;;;;;;;;;;;;;;;;;5114381;28;2241;-45
2022/11/07 07:27:27;;;;;;;;;;;;;;;;;;5114180;28;1824;-43
2022/11/07 07:29:55;;;;;;;;;;;;;;;;;;5112706;28;2242;-42
2022/11/07 07:32:24;;;;;;;;;;;;;;;;;;5114241;28;1804;-44
2022/11/07 07:34:51;;;;;;;;;;;;;;;;;;5114195;28;1917;-47
2022/11/07 07:37:20;;;;;;;;;;;;;;;;;;5114291;28;1862;-44
2022/11/07 07:39:47;;;;;;;;;;;;;;;;;;5114054;28;1863;-46
2022/11/07 07:42:14;;;;;;;;;;;;;;;;;;5113877;28;1839;-46
2022/11/07 07:44:44;;;;;;;;;;;;;;;;;;5114027;28;1733;-44
2022/11/07 07:47:12;;;;;;;;;;;;;;;;;;5120648;27;2024;-47
2022/11/07 07:49:39;;;;;;;;;;;;;;;;;;5134270;27;1771;-47
2022/11/07 07:52:06;;;;;;;;;;;;;;;;;;5117708;27;1550;-46
2022/11/07 07:54:33;;;;;;;;;;;;;;;;;;5112388;28;2127;-44
2022/11/07 07:57:00;;;;;;;;;;;;;;;;;;5116152;27;1962;-45
2022/11/07 07:59:27;;;;;;;;;;;;;;;;;;5134636;27;1658;-45
2022/11/07 08:01:55;;;;;;;;;;;;;;;;;;5134189;27;1801;-45
2022/11/07 08:04:23;;;;;;;;;;;;;;;;;;5134351;27;1771;-46
2022/11/07 08:06:50;;;;;;;;;;;;;;;;;;5133974;27;1771;-45
2022/11/07 08:09:17;;;;;;;;;;;;;;;;;;5133972;27;1698;-46
2022/11/07 08:11:44;;;;;;;;;;;;;;;;;;5134005;27;1690;-46
2022/11/07 08:14:11;;;;;;;;;;;;;;;;;;5133758;27;1972;-45
2022/11/07 08:16:38;;;;;;;;;;;;;;;;;;5133557;27;1749;-45
2022/11/07 08:19:05;;;;;;;;;;;;;;;;;;5134045;27;1590;-45
2022/11/07 08:21:32;;;;;;;;;;;;;;;;;;5132760;27;1819;-45
2022/11/07 08:24:02;;;;;;;;;;;;;;;;;;5133903;27;1885;-44
2022/11/07 08:26:30;;;;;;;;;;;;;;;;;;5133709;27;1969;-45
2022/11/07 08:28:57;;;;;;;;;;;;;;;;;;5133447;27;1433;-46
2022/11/07 08:31:24;;;;;;;;;;;;;;;;;;5133418;27;2221;-46
2022/11/07 08:33:51;;;;;;;;;;;;;;;;;;5133604;27;2001;-45
2022/11/07 08:36:18;;;;;;;;;;;;;;;;;;5133513;27;1971;-44
2022/11/07 08:38:45;;;;;;;;;;;;;;;;;;5133350;27;2030;-50
2022/11/07 08:41:12;;;;;;;;;;;;;;;;;;5133433;27;1790;-42
2022/11/07 08:43:44;;;;;;;;;;;;;;;;;;5133500;27;1810;-47
2022/11/07 08:46:11;;;;;;;;;;;;;;;;;;5133132;27;1550;-44
2022/11/07 08:48:38;;;;;;;;;;;;;;;;;;5133180;27;1547;-45
2022/11/07 08:51:05;;;;;;;;;;;;;;;;;;5123742;27;2140;-45
2022/11/07 08:53:32;;;;;;;;;;;;;;;;;;5112619;28;1814;-45
2022/11/07 08:56:04;;;;;;;;;;;;;;;;;;5112722;28;1968;-44
2022/11/07 08:58:31;;;;;;;;;;;;;;;;;;5112867;28;2197;-47
2022/11/07 09:00:58;;;;;;;;;;;;;;;;;;5112845;28;2054;-46
2022/11/07 09:03:26;;;;;;;;;;;;;;;;;;5112455;28;1956;-46
2022/11/07 09:06:13;;;;;;;;;;;;;;;;;;5112144;28;1759;-47
2022/11/07 09:08:40;;;;;;;;;;;;;;;;;;5112082;28;1902;-46
2022/11/07 09:11:07;;;;;;;;;;;;;;;;;;5112238;28;1983;-45
2022/11/07 09:13:35;;;;;;;;;;;;;;;;;;5112071;28;1689;-44
2022/11/07 09:16:03;;;;;;;;;;;;;;;;;;5112819;28;2011;-49
2022/11/07 09:18:30;;;;;;;;;;;;;;;;;;5112264;28;2188;-45
2022/11/07 09:20:58;;;;;;;;;;;;;;;;;;5112587;28;1966;-44
2022/11/07 09:23:26;;;;;;;;;;;;;;;;;;5112128;28;2002;-46
2022/11/07 09:25:53;;;;;;;;;;;;;;;;;;5112327;28;1635;-45
2022/11/07 09:28:20;;;;;;;;;;;;;;;;;;5112040;28;2038;-46
2022/11/07 09:30:52;;;;;;;;;;;;;;;;;;5111940;28;1892;-47
2022/11/07 09:33:19;;;;;;;;;;;;;;;;;;5111533;28;1992;-44
2022/11/07 09:35:47;;;;;;;;;;;;;;;;;;5111958;28;2190;-45
2022/11/07 09:38:14;;;;;;;;;;;;;;;;;;5112060;28;1663;-45
2022/11/07 09:41:00;;;;;;;;;;;;;;;;;;5110675;28;2026;-46
2022/11/07 09:43:33;;;;;;;;;;;;;;;;;;5111753;28;1612;-44
2022/11/07 09:46:03;;;;;;;;;;;;;;;;;;5112126;28;1807;-44
2022/11/07 09:48:36;;;;;;;;;;;;;;;;;;5111885;28;1579;-44
2022/11/07 09:51:03;;;;;;;;;;;;;;;;;;5111463;28;2158;-46
2022/11/07 09:53:32;;;;;;;;;;;;;;;;;;5111929;28;2104;-44
2022/11/07 09:56:02;;;;;;;;;;;;;;;;;;5111370;28;2080;-44
2022/11/07 09:58:35;;;;;;;;;;;;;;;;;;5111581;28;1897;-44
2022/11/07 10:01:04;;;;;;;;;;;;;;;;;;5111781;28;1976;-44
2022/11/07 10:03:36;;;;;;;;;;;;;;;;;;5111880;28;1970;-45
2022/11/07 10:06:03;;;;;;;;;;;;;;;;;;5111578;28;1754;-46
2022/11/07 10:08:32;;;;;;;;;;;;;;;;;;5111482;28;2150;-45
2022/11/07 10:11:02;;;;;;;;;;;;;;;;;;5111540;28;2072;-48
2022/11/07 10:13:34;;;;;;;;;;;;;;;;;;5110529;28;1719;-46
2022/11/07 10:16:30;;;;;;;;;;;;;;;;;;5109925;28;1910;-44
2022/11/07 10:19:05;;;;;;;;;;;;;;;;;;5104516;28;1606;-46
2022/11/07 10:21:32;;;;;;;;;;;;;;;;;;5109506;28;1444;-46
2022/11/07 10:24:13;;;;;;;;;;;;;;;;;;5109376;28;2004;-46
2022/11/07 10:26:42;;;;;;;;;;;;;;;;;;5109089;28;1952;-44
2022/11/07 10:29:27;;;;;;;;;;;;;;;;;;5110520;28;2034;-45
2022/11/07 10:31:56;;;;;;;;;;;;;;;;;;5111281;28;1852;-47
2022/11/07 10:34:39;;;;;;;;;;;;;;;;;;5111255;28;1810;-48
2022/11/07 10:37:07;;;;;;;;;;;;;;;;;;5111420;28;2150;-46
2022/11/07 10:39:34;;;;;;;;;;;;;;;;;;5111340;28;1602;-46
2022/11/07 10:42:06;;;;;;;;;;;;;;;;;;5111172;28;1790;-44
2022/11/07 10:44:34;;;;;;;;;;;;;;;;;;5111878;28;1694;-44
2022/11/07 10:47:02;;;;;;;;;;;;;;;;;;5113805;28;1980;-46
2022/11/07 10:49:29;;;;;;;;;;;;;;;;;;5114692;28;1964;-47
2022/11/07 10:52:08;;;;;;;;;;;;;;;;;;5130035;27;1702;-45
2022/11/07 10:54:35;;;;;;;;;;;;;;;;;;5133982;27;2272;-46
2022/11/07 10:57:08;;;;;;;;;;;;;;;;;;5135430;27;1741;-45
2022/11/07 10:59:36;;;;;;;;;;;;;;;;;;5135717;27;2077;-46
2022/11/07 11:02:17;;;;;;;;;;;;;;;;;;5135476;27;1955;-47
2022/11/07 11:04:49;;;;;;;;;;;;;;;;;;5135139;27;1522;-50
2022/11/07 11:07:17;;;;;;;;;;;;;;;;;;5135127;27;1922;-46
2022/11/07 11:09:51;;;;;;;;;;;;;;;;;;5135034;27;1662;-45
2022/11/07 11:12:24;;;;;;;;;;;;;;;;;;5135132;27;2014;-47
2022/11/07 11:15:01;;;;;;;;;;;;;;;;;;5134830;27;2123;-46
2022/11/07 11:17:29;;;;;;;;;;;;;;;;;;5135343;27;2045;-46
2022/11/07 11:19:58;;;;;;;;;;;;;;;;;;5135219;27;1947;-47
2022/11/07 11:22:27;;;;;;;;;;;;;;;;;;5135093;27;1818;-47
2022/11/07 11:25:17;;;;;;;;;;;;;;;;;;5134893;27;1737;-45
2022/11/07 11:27:45;;;;;;;;;;;;;;;;;;5134175;27;1894;-60
2022/11/07 11:30:15;;;;;;;;;;;;;;;;;;5134561;27;1207;-60
2022/11/07 11:32:45;;;;;;;;;;;;;;;;;;5134556;27;2099;-45
2022/11/07 11:35:18;;;;;;;;;;;;;;;;;;5134711;27;2230;-46
2022/11/07 11:37:49;;;;;;;;;;;;;;;;;;5134599;27;1858;-44
2022/11/07 11:40:18;;;;;;;;;;;;;;;;;;5134552;27;1601;-48
2022/11/07 11:43:08;;;;;;;;;;;;;;;;;;5134721;27;1998;-45
2022/11/07 11:45:38;;;;;;;;;;;;;;;;;;5129183;27;1992;-47
2022/11/07 11:48:21;;;;;;;;;;;;;;;;;;5134548;27;1970;-45
2022/11/07 11:50:50;;;;;;;;;;;;;;;;;;5128723;27;1717;-46
2022/11/07 11:53:19;;;;;;;;;;;;;;;;;;5113701;27;1764;-45
2022/11/07 11:55:55;;;;;;;;;;;;;;;;;;5130394;27;1915;-45
2022/11/07 11:58:31;;;;;;;;;;;;;;;;;;5134185;27;2183;-46
2022/11/07 12:01:14;;;;;;;;;;;;;;;;;;5134218;27;1637;-45
2022/11/07 12:03:47;;;;;;;;;;;;;;;;;;5134498;27;2168;-44
2022/11/07 12:06:15;;;;;;;;;;;;;;;;;;5133761;27;1606;-47
2022/11/07 12:09:01;;;;;;;;;;;;;;;;;;5134368;27;1950;-45
2022/11/07 12:11:47;;;;;;;;;;;;;;;;;;5133806;27;1743;-46
2022/11/07 12:14:14;;;;;;;;;;;;;;;;;;5134092;27;2026;-46
2022/11/07 12:16:49;;;;;;;;;;;;;;;;;;5134094;27;2165;-45
2022/11/07 12:19:34;;;;;;;;;;;;;;;;;;5125502;27;1434;-44
2022/11/07 12:22:20;;;;;;;;;;;;;;;;;;5113231;28;1735;-45
2022/11/07 12:24:47;;;;;;;;;;;;;;;;;;5113223;28;1956;-48
2022/11/07 12:27:18;;;;;;;;;;;;;;;;;;5113449;28;2012;-47
2022/11/07 12:30:08;;;;;;;;;;;;;;;;;;5113116;28;1841;-46
2022/11/07 12:32:38;;;;;;;;;;;;;;;;;;5113029;28;1949;-48
2022/11/07 12:35:20;;;;;;;;;;;;;;;;;;5113173;28;1902;-43
2022/11/07 12:37:54;;;;;;;;;;;;;;;;;;5113015;28;2004;-48
2022/11/07 12:40:24;;;;;;;;;;;;;;;;;;5112482;28;1843;-45
2022/11/07 12:43:10;;;;;;;;;;;;;;;;;;5113017;27;1956;-45
2022/11/07 12:45:40;;;;;;;;;;;;;;;;;;5112844;28;2084;-46
2022/11/07 12:48:10;;;;;;;;;;;;;;;;;;5113011;28;1633;-45
2022/11/07 12:51:04;;;;;;;;;;;;;;;;;;5112569;28;1922;-47
2022/11/07 12:53:35;;;;;;;;;;;;;;;;;;5112508;28;2088;-51
2022/11/07 12:56:06;;;;;;;;;;;;;;;;;;5112640;28;1984;-47
2022/11/07 12:58:34;;;;;;;;;;;;;;;;;;5112544;28;1723;-46
2022/11/07 13:01:02;;;;;;;;;;;;;;;;;;5112640;28;1985;-50
2022/11/07 13:03:34;;;;;;;;;;;;;;;;;;5112270;28;1935;-48
2022/11/07 13:06:01;;;;;;;;;;;;;;;;;;5111989;28;1606;-48
2022/11/07 13:08:37;;;;;;;;;;;;;;;;;;5111926;28;1925;-46
2022/11/07 13:11:23;;;;;;;;;;;;;;;;;;5112235;28;1696;-52
2022/11/07 13:13:50;;;;;;;;;;;;;;;;;;5110883;28;1669;-45
2022/11/07 13:16:25;;;;;;;;;;;;;;;;;;5110252;28;1976;-45
2022/11/07 13:18:52;;;;;;;;;;;;;;;;;;5108669;28;1720;-46
2022/11/07 13:21:19;;;;;;;;;;;;;;;;;;5110255;28;1484;-47
2022/11/07 13:23:47;;;;;;;;;;;;;;;;;;5110120;28;1995;-45
2022/11/07 13:26:25;;;;;;;;;;;;;;;;;;5110062;28;1352;-46
2022/11/07 13:29:21;;;;;;;;;;;;;;;;;;5109858;28;1530;-46
2022/11/07 13:31:52;;;;;;;;;;;;;;;;;;5111652;28;1867;-45
2022/11/07 13:34:20;;;;;;;;;;;;;;;;;;5111868;28;1812;-46
2022/11/07 13:36:48;;;;;;;;;;;;;;;;;;5111211;28;1962;-45
2022/11/07 13:39:16;;;;;;;;;;;;;;;;;;5111935;28;2361;-45
2022/11/07 13:41:43;;;;;;;;;;;;;;;;;;5111879;28;1853;-45
2022/11/07 13:44:20;;;;;;;;;;;;;;;;;;5111799;28;1869;-46
2022/11/07 13:46:55;;;;;;;;;;;;;;;;;;5112061;28;1954;-46
2022/11/07 13:49:27;;;;;;;;;;;;;;;;;;5111316;28;1787;-45
2022/11/07 13:52:00;;;;;;;;;;;;;;;;;;5110701;28;2051;-46
2022/11/07 13:54:38;;;;;;;;;;;;;;;;;;5111219;28;2007;-44
2022/11/07 13:57:14;;;;;;;;;;;;;;;;;;5111380;28;1983;-45
2022/11/07 13:59:44;;;;;;;;;;;;;;;;;;5111484;28;1860;-46
2022/11/07 14:02:19;;;;;;;;;;;;;;;;;;5111636;28;1829;-46
2022/11/07 14:04:55;;;;;;;;;;;;;;;;;;5111705;28;2007;-45
2022/11/07 14:07:45;;;;;;;;;;;;;;;;;;5111296;28;1712;-45
2022/11/07 14:10:19;;;;;;;;;;;;;;;;;;5110258;28;1764;-44
2022/11/07 14:12:47;;;;;;;;;;;;;;;;;;5111540;28;2272;-45
2022/11/07 14:15:16;;;;;;;;;;;;;;;;;;5111158;28;1577;-46
2022/11/07 14:17:44;;;;;;;;;;;;;;;;;;5111201;28;1990;-47
2022/11/07 14:20:14;;;;;;;;;;;;;;;;;;5114755;28;2122;-45
2022/11/07 14:22:49;;;;;;;;;;;;;;;;;;5115681;27;1835;-48
2022/11/07 14:25:22;;;;;;;;;;;;;;;;;;5115636;28;2295;-43
2022/11/07 14:27:49;;;;;;;;;;;;;;;;;;5115648;28;1130;-46
2022/11/07 14:30:18;;;;;;;;;;;;;;;;;;5115284;27;2267;-44
2022/11/07 14:32:46;;;;;;;;;;;;;;;;;;5115359;28;1576;-46
2022/11/07 14:35:16;;;;;;;;;;;;;;;;;;5115043;28;1697;-46
2022/11/07 14:37:45;;;;;;;;;;;;;;;;;;5115141;28;1974;-51
2022/11/07 14:40:15;;;;;;;;;;;;;;;;;;5115354;28;1808;-46
2022/11/07 14:42:45;;;;;;;;;;;;;;;;;;5115352;28;1668;-44
2022/11/07 14:45:14;;;;;;;;;;;;;;;;;;5115266;28;1803;-46
2022/11/07 14:47:44;;;;;;;;;;;;;;;;;;5115218;28;2279;-49
2022/11/07 14:50:16;;;;;;;;;;;;;;;;;;5115251;27;1936;-46
2022/11/07 14:52:46;;;;;;;;;;;;;;;;;;5135459;27;1834;-47
2022/11/07 14:55:19;;;;;;;;;;;;;;;;;;5134573;27;1871;-50
2022/11/07 14:57:48;;;;;;;;;;;;;;;;;;5135222;27;2028;-47
2022/11/07 15:00:17;;;;;;;;;;;;;;;;;;5134921;27;1863;-46
2022/11/07 15:02:46;;;;;;;;;;;;;;;;;;5134198;27;1434;-47
2022/11/07 15:05:30;;;;;;;;;;;;;;;;;;5135185;27;2116;-48
2022/11/07 15:07:59;;;;;;;;;;;;;;;;;;5135328;27;1694;-48
2022/11/07 15:10:29;;;;;;;;;;;;;;;;;;5135061;27;2112;-51
2022/11/07 15:13:04;;;;;;;;;;;;;;;;;;5135595;27;2047;-45
2022/11/07 15:15:34;;;;;;;;;;;;;;;;;;5134813;27;1931;-44
2022/11/07 15:18:05;;;;;;;;;;;;;;;;;;5134857;27;2111;-45
2022/11/07 15:20:35;;;;;;;;;;;;;;;;;;5135050;27;1554;-44
2022/11/07 15:23:06;;;;;;;;;;;;;;;;;;5134831;27;2019;-48
2022/11/07 15:25:39;;;;;;;;;;;;;;;;;;5134980;27;1523;-46
2022/11/07 15:28:18;;;;;;;;;;;;;;;;;;5134711;27;1701;-45
2022/11/07 15:30:46;;;;;;;;;;;;;;;;;;5134641;27;1734;-47
2022/11/07 15:33:15;;;;;;;;;;;;;;;;;;5134542;27;1784;-47
2022/11/07 15:35:44;;;;;;;;;;;;;;;;;;5134452;27;1302;-44
2022/11/07 15:38:18;;;;;;;;;;;;;;;;;;5134691;27;1869;-48
2022/11/07 15:40:46;;;;;;;;;;;;;;;;;;5134578;27;1833;-48
2022/11/07 15:43:13;;;;;;;;;;;;;;;;;;5134596;27;1872;-47
2022/11/07 15:45:41;;;;;;;;;;;;;;;;;;5133343;27;1961;-46
2022/11/07 15:48:13;;;;;;;;;;;;;;;;;;5134562;27;1844;-47
2022/11/07 15:50:41;;;;;;;;;;;;;;;;;;5129882;27;1788;-48
2022/11/07 15:53:16;;;;;;;;;;;;;;;;;;5113848;28;2008;-45
2022/11/07 15:55:44;;;;;;;;;;;;;;;;;;5113739;28;1862;-45
2022/11/07 15:58:12;;;;;;;;;;;;;;;;;;5113550;28;1906;-46
2022/11/07 16:00:40;;;;;;;;;;;;;;;;;;5113354;28;1827;-47
2022/11/07 16:03:18;;;;;;;;;;;;;;;;;;5113682;28;2062;-46
2022/11/07 16:05:47;;;;;;;;;;;;;;;;;;5113322;28;1938;-45
2022/11/07 16:08:15;;;;;;;;;;;;;;;;;;5113613;28;2046;-47
2022/11/07 16:10:48;;;;;;;;;;;;;;;;;;5113429;28;1791;-47
2022/11/07 16:13:15;;;;;;;;;;;;;;;;;;5113574;28;1531;-47
2022/11/07 16:15:44;;;;;;;;;;;;;;;;;;5113377;28;2409;-46
2022/11/07 16:18:15;;;;;;;;;;;;;;;;;;5113209;28;2097;-47
2022/11/07 16:20:43;;;;;;;;;;;;;;;;;;5113198;28;1905;-47
2022/11/07 16:23:10;;;;;;;;;;;;;;;;;;5113127;28;2052;-45
2022/11/07 16:25:38;;;;;;;;;;;;;;;;;;5113345;28;2013;-44
2022/11/07 16:28:17;;;;;;;;;;;;;;;;;;5113166;28;2241;-46
2022/11/07 16:30:45;;;;;;;;;;;;;;;;;;5112957;28;2099;-46
2022/11/07 16:33:14;;;;;;;;;;;;;;;;;;5112948;28;1811;-44
2022/11/07 16:35:41;;;;;;;;;;;;;;;;;;5111209;28;2153;-46
2022/11/07 16:38:13;;;;;;;;;;;;;;;;;;5112837;28;2021;-44
2022/11/07 16:40:42;;;;;;;;;;;;;;;;;;5112746;27;1935;-46
2022/11/07 16:43:08;;;;;;;;;;;;;;;;;;5111962;28;2068;-46
2022/11/07 16:45:36;;;;;;;;;;;;;;;;;;5112831;28;2122;-45
2022/11/07 16:48:04;;;;;;;;;;;;;;;;;;5112997;28;2127;-47
2022/11/07 16:50:31;;;;;;;;;;;;;;;;;;5115738;27;1523;-46
2022/11/07 16:52:58;;;;;;;;;;;;;;;;;;5133375;27;1908;-45
2022/11/07 16:55:25;;;;;;;;;;;;;;;;;;5133054;27;1819;-43
2022/11/07 16:57:54;;;;;;;;;;;;;;;;;;5133066;27;2151;-46
2022/11/07 17:00:22;;;;;;;;;;;;;;;;;;5112660;27;1452;-44
2022/11/07 17:02:51;;;;;;;;;;;;;;;;;;5112309;28;2011;-47
2022/11/07 17:05:23;;;;;;;;;;;;;;;;;;5192477;27;1262;-46
2022/11/07 17:08:00;;;;;;;;;;;;;;;;;;5192171;27;920;-46
2022/11/07 17:10:27;;;;;;;;;;;;;;;;;;5191972;27;1050;-45
2022/11/07 17:12:56;;;;;;;;;;;;;;;;;;5191970;27;1001;-44
2022/11/07 17:15:23;;;;;;;;;;;;;;;;;;5190669;27;1186;-46
2022/11/07 17:17:52;;;;;;;;;;;;;;;;;;5191825;27;1048;-44
2022/11/07 17:20:28;;;;;;;;;;;;;;;;;;5191890;27;951;-48
2022/11/07 17:23:16;;;;;;;;;;;;;;;;;;5191751;27;1891;-44
2022/11/07 17:25:46;;;;;;;;;;;;;;;;;;5191705;27;922;-46
2022/11/07 17:28:13;;;;;;;;;;;;;;;;;;5191776;27;995;-50
2022/11/07 17:30:40;;;;;;;;;;;;;;;;;;5191527;27;976;-45
2022/11/07 17:33:07;;;;;;;;;;;;;;;;;;5191519;27;1066;-43
2022/11/07 17:35:34;;;;;;;;;;;;;;;;;;5191365;27;1051;-45